M I D A S
Marine Information and Data Acquisition System
Tripno 309 of the Zeeleeuw from 2002-08-23 06:30:27 to 2002-08-23 13:35:26
Back to CruiseResearch ActivitiesStationsMapUnderway DataData graphs

EquipmentUnitsComment
TimeDGPSUTC
LatitudeDGPSDM.mWGS84
LongitudeDGPSDM.mWGS84
TemperatureSBE03/SBE38deg celciusITS90
ConductivitySBE21S/mITS90
SalinitySBE21 Practical Salinity Units
ChlorophylAChelsea fluorimeterg/lCalibrated in Aceton
Missing or incorrect values are displayed as -999
Sea surface data collected by the RV Zeeleeuw from 2002-08-23 06:30:27 to 2002-08-23 13:35:26
Time Latitude Longitude Temperature Conductivity Salinity ChlorophylA
2002-08-23 06:31:29 51°13.674 2°55.896 21.689338 2.454378 15.710401  
2002-08-23 06:32:33 51°13.68 2°55.823 21.391276 3.389275 22.968755  
2002-08-23 06:33:31 51°13.674 2°55.764 21.221018 3.566782 24.413664  
2002-08-23 06:34:31 51°13.668 2°55.744 21.186726 3.500621 23.959155  
2002-08-23 06:35:30 51°13.697 2°55.742 21.196076 3.273429 22.268237  
2002-08-23 06:36:30 51°13.777 2°55.671 21.23601 3.15255 21.36384  
2002-08-23 06:37:31 51°13.891 2°55.587 21.162489 2.604746 17.27952  
2002-08-23 06:38:31 51°14.011 2°55.503 21.214097 3.057383 20.636954  
2002-08-23 06:39:32 51°14.134 2°55.409 21.108931 3.534229 24.256774  
2002-08-23 06:40:32 51°14.245 2°55.291 21.180836 3.566995 24.51058  
2002-08-23 06:41:30 51°14.335 2°55.115 21.31454 3.301652 22.492614  
2002-08-23 06:42:30 51°14.417 2°54.909 20.969691 3.597128 24.741962  
2002-08-23 06:43:32 51°14.462 2°54.661 20.969052 3.969492 27.66423  
2002-08-23 06:44:31 51°14.439 2°54.407 21.274292 4.131549 28.958047  
2002-08-23 06:45:31 51°14.373 2°54.113 21.062309 4.323912 30.439755  
2002-08-23 06:46:31 51°14.285 2°53.76 21.269761 4.362305 30.732092  
2002-08-23 06:47:30 51°14.185 2°53.408 21.281088 4.375068 30.819472  
2002-08-23 06:48:31 51°14.076 2°53.041 21.353097 4.389625 30.930473  
2002-08-23 06:49:31 51°13.97 2°52.671 21.30453 4.396692 30.983572  
2002-08-23 06:50:32 51°13.861 2°52.293 21.276438 4.396798 30.998498  
2002-08-23 06:51:31 51°13.755 2°51.93 21.142026 4.40798 31.078977  
2002-08-23 06:52:31 51°13.643 2°51.567 21.224677 4.410617 31.10783  
2002-08-23 06:53:32 51°13.524 2°51.198 21.281644 4.415153 31.152677  
2002-08-23 06:54:32 51°13.405 2°50.834 21.162807 4.420849 31.203663  
2002-08-23 06:55:32 51°13.279 2°50.481 21.220341 4.419584 31.204846  
2002-08-23 06:56:31 51°13.159 2°50.141 21.015417 4.410512 31.142934  
2002-08-23 06:57:31 51°13.036 2°49.796 21.097697 4.401335 31.081694  
2002-08-23 06:58:31 51°12.914 2°49.45 21.067889 4.402706 31.098585  
2002-08-23 06:59:31 51°12.791 2°49.104 21.354129 4.423487 31.260552  
2002-08-23 07:00:32 51°12.666 2°48.749 21.071118 4.434353 31.355027  
2002-08-23 07:01:31 51°12.543 2°48.406 21.05023 4.433087 31.360864  
2002-08-23 07:02:32 51°12.417 2°48.052 21.071197 4.444059 31.46144  
2002-08-23 07:03:32 51°12.294 2°47.706 21.06761 4.449122 31.508694  
2002-08-23 07:04:31 51°12.172 2°47.367 20.86624 4.46136 31.608652  
2002-08-23 07:05:30 51°12.054 2°47.016 21.299047 4.461465 31.611551  
2002-08-23 07:06:32 51°11.934 2°46.63 20.75303 4.471909 31.686512  
2002-08-23 07:07:31 51°11.83 2°46.252 20.932802 4.479188 31.737955  
2002-08-23 07:08:32 51°11.734 2°45.852 20.888701 4.488366 31.803399  
2002-08-23 07:09:30 51°11.643 2°45.473 21.176618 4.491426 31.835942  
2002-08-23 07:10:31 51°11.548 2°45.077 21.084269 4.507145 31.961062  
2002-08-23 07:11:31 51°11.454 2°44.689 21.219387 4.530038 32.137417  
2002-08-23 07:12:31 51°11.372 2°44.295 21.248972 4.546708 32.270246  
2002-08-23 07:13:31 51°11.291 2°43.899 21.151104 4.562534 32.396458  
2002-08-23 07:14:31 51°11.209 2°43.503 21.109688 4.566226 32.428441  
2002-08-23 07:15:32 51°11.126 2°43.099 20.931324 4.574245 32.500652  
2002-08-23 07:16:31 51°11.049 2°42.707 20.991041 4.584585 32.591387  
2002-08-23 07:17:31 51°11.055 2°42.296 20.923177 4.603471 32.741689  
2002-08-23 07:18:37 51°11.11 2°42.004 21.122673 4.611913 32.817475  
2002-08-23 07:19:35 51°11.197 2°42.001 20.774606 4.593238 32.693871  
2002-08-23 07:20:37 51°11.215 2°42 20.895334 4.595348 32.742813  
2002-08-23 07:21:35 51°11.22 2°42.001 21.021719 4.604528 32.823019  
2002-08-23 07:22:37 51°11.213 2°42.007 20.822178 4.604 32.823648  
2002-08-23 07:23:37 51°11.201 2°42.018 20.884785 4.606955 32.850455  
2002-08-23 07:24:37 51°11.196 2°42.037 20.917745 4.608221 32.860562  
2002-08-23 07:25:35 51°11.193 2°42.055 20.69227 4.60896 32.865381  
2002-08-23 07:26:38 51°11.195 2°42.078 20.959113 4.608432 32.85794  
2002-08-23 07:27:42 51°11.187 2°42.095 20.997306 4.607482 32.847132  
2002-08-23 07:28:45 51°11.174 2°42.099 21.063146 4.613391 32.892675  
2002-08-23 07:29:45 51°11.157 2°42.096 20.904483 4.613813 32.891734  
2002-08-23 07:30:45 51°11.139 2°42.084 21.071397 4.610647 32.865397  
2002-08-23 07:31:45 51°11.12 2°42.068 21.106939 4.606321 32.827117  
2002-08-23 07:32:45 51°11.104 2°42.049 20.91379 4.605161 32.817321  
2002-08-23 07:33:45 51°11.09 2°42.031 21.078052 4.60611 32.823284  
2002-08-23 07:34:45 51°11.079 2°42.011 21.0814 4.606743 32.826722  
2002-08-23 07:35:45 51°11.07 2°41.991 20.954323 4.606005 32.81707  
2002-08-23 07:36:45 51°11.062 2°41.966 20.925094 4.604211 32.800081  
2002-08-23 07:37:45 51°11.055 2°41.942 20.992717 4.604316 32.798775  
2002-08-23 07:38:45 51°11.05 2°41.917 20.963185 4.605055 32.803054  
2002-08-23 07:39:45 51°11.044 2°41.893 20.901646 4.603683 32.787289  
2002-08-23 07:40:45 51°11.051 2°41.884 21.067491 4.60094 32.764884  
2002-08-23 07:41:50 51°11.165 2°41.737 20.994553 4.601573 32.768858  
2002-08-23 07:42:50 51°11.162 2°41.366 21.109329 4.615817 32.894268  
2002-08-23 07:43:50 51°11.053 2°40.994 20.574808 4.619933 32.938423  
2002-08-23 07:44:50 51°10.943 2°40.617 20.564853 4.641564 33.144264  
2002-08-23 07:46:02 51°10.81 2°40.163 20.597562 4.637765 33.104663  
2002-08-23 07:47:22 51°10.664 2°39.654 20.576052 4.654225 33.221029  
2002-08-23 07:48:42 51°10.527 2°39.136 20.554054 4.649372 33.210525  
2002-08-23 07:50:02 51°10.446 2°38.588 20.548875 4.664145 33.335296  
2002-08-23 07:51:10 51°10.375 2°38.121 20.550481 4.674697 33.421435  
2002-08-23 07:52:11 51°10.31 2°37.703 20.545221 4.693163 33.566083  
2002-08-23 07:53:12 51°10.244 2°37.285 20.517028 4.711524 33.725453  
2002-08-23 07:54:11 51°10.179 2°36.884 20.821698 4.722499 33.838514  
2002-08-23 07:55:11 51°10.114 2°36.478 20.986692 4.727037 33.892227  
2002-08-23 07:56:11 51°10.051 2°36.082 21.007399 4.73263 33.938299  
2002-08-23 07:57:11 51°10.132 2°35.75 20.903803 4.740439 34.029068  
2002-08-23 07:58:12 51°10.332 2°35.791 20.543294 4.743711 34.072787  
2002-08-23 07:59:12 51°10.518 2°35.955 20.583437 4.742024 34.105825  
2002-08-23 08:00:11 51°10.697 2°36.125 20.571035 4.74023 34.108242  
2002-08-23 08:01:12 51°10.881 2°36.302 20.722997 4.740547 34.116992  
2002-08-23 08:02:11 51°11.059 2°36.474 20.683214 4.736642 34.097875  
2002-08-23 08:03:11 51°11.239 2°36.651 20.552007 4.728622 34.03484  
2002-08-23 08:04:11 51°11.419 2°36.826 20.722076 4.723874 33.995402  
2002-08-23 08:05:11 51°11.6 2°37 20.46125 4.719019 33.954001  
2002-08-23 08:06:11 51°11.78 2°37.176 20.758595 4.713427 33.901618  
2002-08-23 08:07:11 51°11.961 2°37.355 20.997306 4.706778 33.815088  
2002-08-23 08:08:12 51°12.145 2°37.534 21.045924 4.707094 33.78588  
2002-08-23 08:09:12 51°12.326 2°37.706 20.971327 4.704561 33.732172  
2002-08-23 08:10:11 51°12.504 2°37.876 20.884505 4.69443 33.635292  
2002-08-23 08:11:12 51°12.687 2°38.052 21.052941 4.682084 33.527922  
2002-08-23 08:12:12 51°12.868 2°38.223 21.213978 4.662246 33.369368  
2002-08-23 08:13:11 51°13.05 2°38.384 21.063186 4.645574 33.232468  
2002-08-23 08:14:12 51°13.244 2°38.536 21.10909 4.636394 33.147497  
2002-08-23 08:15:11 51°13.433 2°38.676 21.083034 4.630274 33.089268  
2002-08-23 08:16:10 51°13.631 2°38.782 21.155164 4.627742 33.064662  
2002-08-23 08:17:11 51°13.849 2°38.83 20.958035 4.627742 33.060321  
2002-08-23 08:18:12 51°14.067 2°38.745 20.810378 4.625948 33.05194  
2002-08-23 08:19:11 51°14.269 2°38.574 20.893855 4.636816 33.151965  
2002-08-23 08:20:11 51°14.473 2°38.408 20.780569 4.65486 33.301401  
2002-08-23 08:21:11 51°14.674 2°38.241 20.623397 4.655071 33.325542  
2002-08-23 08:22:13 51°14.882 2°38.073 20.943144 4.645154 33.293106  
2002-08-23 08:23:13 51°15.081 2°37.909 20.758755 4.634497 33.233302  
2002-08-23 08:24:11 51°15.276 2°37.748 20.706213 4.627322 33.189916  
2002-08-23 08:25:12 51°15.488 2°37.578 20.789773 4.619726 33.143665  
2002-08-23 08:26:11 51°15.694 2°37.416 20.90692 4.6135 33.10404  
2002-08-23 08:27:13 51°15.913 2°37.253 20.734371 4.607698 33.067793  
2002-08-23 08:28:10 51°16.117 2°37.101 20.601895 4.605693 33.055507  
2002-08-23 08:29:13 51°16.338 2°36.921 20.828857 4.605693 33.054415  
2002-08-23 08:30:13 51°16.491 2°36.824 20.895533 4.602106 33.028865  
2002-08-23 08:31:13 51°16.528 2°36.889 20.605987 4.597357 32.986361  
2002-08-23 08:32:13 51°16.554 2°36.916 20.704531 4.595142 32.969109  
2002-08-23 08:33:11 51°16.578 2°36.876 20.736253 4.594614 32.967049  
2002-08-23 08:34:11 51°16.583 2°36.822 20.509877 4.593665 32.956701  
2002-08-23 08:35:11 51°16.584 2°36.767 20.612326 4.593876 32.956219  
2002-08-23 08:36:11 51°16.582 2°36.714 20.677042 4.593875 32.952954  
2002-08-23 08:37:11 51°16.579 2°36.665 20.671711 4.59377 32.953195  
2002-08-23 08:38:11 51°16.575 2°36.619 20.72516 4.592821 32.953187  
2002-08-23 08:39:13 51°16.569 2°36.575 20.528475 4.591871 32.952635  
2002-08-23 08:40:13 51°16.561 2°36.536 20.760877 4.591977 32.950761  
2002-08-23 08:41:12 51°16.552 2°36.5 20.723438 4.591871 32.949369  
2002-08-23 08:42:10 51°16.541 2°36.465 20.653472 4.591449 32.949789  
2002-08-23 08:43:11 51°16.528 2°36.43 20.71086 4.590605 32.946274  
2002-08-23 08:44:13 51°16.503 2°36.47 20.64 4.590711 32.952022  
2002-08-23 08:45:12 51°16.582 2°36.523 20.768362 4.590922 32.951539  
2002-08-23 08:46:12 51°16.749 2°36.306 20.879749 4.592293 32.942422  
2002-08-23 08:47:10 51°16.907 2°36.026 20.589577 4.593665 32.95779  
2002-08-23 08:48:11 51°17.07 2°35.736 20.647017 4.593032 32.969039  
2002-08-23 08:49:11 51°17.233 2°35.464 20.403417 4.606538 33.097277  
2002-08-23 08:50:11 51°17.397 2°35.196 20.525182 4.630279 33.334653  
2002-08-23 08:51:12 51°17.567 2°34.922 20.587289 4.635449 33.382428  
2002-08-23 08:52:12 51°17.738 2°34.651 20.813658 4.636927 33.39379  
2002-08-23 08:53:11 51°17.9 2°34.376 20.673315 4.638193 33.407325  
2002-08-23 08:54:11 51°18.06 2°34.088 20.347913 4.639459 33.422525  
2002-08-23 08:55:13 51°18.224 2°33.792 20.503168 4.638615 33.41516  
2002-08-23 08:56:12 51°18.378 2°33.505 20.501601 4.639143 33.424958  
2002-08-23 08:57:12 51°18.528 2°33.204 20.559233 4.640514 33.441572  
2002-08-23 08:58:10 51°18.673 2°32.915 20.45924 4.641464 33.453121  
2002-08-23 08:59:11 51°18.822 2°32.608 20.607792 4.644946 33.487343  
2002-08-23 09:00:11 51°18.967 2°32.301 20.620268 4.64558 33.503573  
2002-08-23 09:01:12 51°19.114 2°31.988 20.415527 4.645158 33.520191  
2002-08-23 09:02:11 51°19.254 2°31.682 20.523213 4.644209 33.540928  
2002-08-23 09:03:12 51°19.398 2°31.368 20.274671 4.646214 33.580039  
2002-08-23 09:04:12 51°19.539 2°31.054 20.237417 4.645687 33.613247  
2002-08-23 09:05:12 51°19.656 2°30.786 20.520442 4.644104 33.586988  
2002-08-23 09:06:11 51°19.729 2°30.606 20.478535 4.646953 33.615109  
2002-08-23 09:07:12 51°19.79 2°30.449 20.93971 4.646954 33.647059  
2002-08-23 09:08:12 51°19.848 2°30.309 20.227455 4.646638 33.666389  
2002-08-23 09:09:11 51°19.908 2°30.178 20.420998 4.646849 33.678782  
2002-08-23 09:10:11 51°19.966 2°30.039 20.224592 4.647799 33.690431  
2002-08-23 09:11:11 51°20.023 2°29.912 20.290027 4.648643 33.696161  
2002-08-23 09:12:10 51°20.046 2°29.843 20.390541 4.649909 33.705318  
2002-08-23 09:13:13 51°20.019 2°29.832 20.45522 4.651492 33.718735  
2002-08-23 09:14:11 51°19.995 2°29.816 20.288737 4.652547 33.727868  
2002-08-23 09:15:12 51°19.974 2°29.793 20.253386 4.652125 33.725566  
2002-08-23 09:16:12 51°19.953 2°29.771 20.356126 4.651808 33.725248  
2002-08-23 09:17:11 51°19.935 2°29.748 20.256248 4.651703 33.722138  
2002-08-23 09:18:10 51°19.917 2°29.722 20.189571 4.651175 33.717853  
2002-08-23 09:19:10 51°19.9 2°29.695 20.322662 4.65107 33.71587  
2002-08-23 09:20:11 51°19.884 2°29.666 20.257619 4.650859 33.714156  
2002-08-23 09:21:11 51°19.87 2°29.637 20.35661 4.650331 33.708746  
2002-08-23 09:22:11 51°19.856 2°29.607 20.425623 4.650542 33.709334  
2002-08-23 09:23:11 51°19.843 2°29.578 20.393559 4.650331 33.706495  
2002-08-23 09:24:12 51°19.86 2°29.562 20.492399 4.65012 33.705906  
2002-08-23 09:25:12 51°19.905 2°29.472 20.329066 4.650542 33.707645  
2002-08-23 09:26:10 51°19.875 2°29.321 20.297643 4.652019 33.719079  
2002-08-23 09:27:11 51°19.777 2°29.288 20.200265 4.653602 33.731369  
2002-08-23 09:28:12 51°19.726 2°29.405 20.400883 4.655923 33.749095  
2002-08-23 09:29:11 51°19.719 2°29.562 20.331805 4.65318 33.725689  
2002-08-23 09:30:11 51°19.728 2°29.722 20.358985 4.650753 33.708796  
2002-08-23 09:31:11 51°19.722 2°29.881 20.35673 4.647799 33.688181  
2002-08-23 09:32:13 51°19.728 2°30.044 20.286924 4.647588 33.688717  
2002-08-23 09:33:11 51°19.748 2°30.192 20.284304 4.64706 33.686121  
2002-08-23 09:34:12 51°19.756 2°30.342 20.181338 4.646955 33.688639  
2002-08-23 09:35:11 51°19.739 2°30.492 20.176252 4.647166 33.694293  
2002-08-23 09:36:11 51°19.721 2°30.65 20.072925 4.646638 33.692821  
2002-08-23 09:37:11 51°19.695 2°30.812 20.03067 4.646427 33.696737  
2002-08-23 09:38:12 51°19.7 2°30.969 20.042359 4.645583 33.691004  
2002-08-23 09:39:12 51°19.712 2°31.095 20.465351 4.645161 33.676321  
2002-08-23 09:40:12 51°19.747 2°31.119 20.485729 4.643156 33.642619  
2002-08-23 09:41:12 51°19.778 2°31.115 20.516586 4.644 33.634874  
2002-08-23 09:42:12 51°19.803 2°31.102 20.450717 4.643789 33.632601  
2002-08-23 09:43:12 51°19.824 2°31.084 20.305339 4.644527 33.644768  
2002-08-23 09:44:11 51°19.836 2°31.064 20.140561 4.644422 33.652336  
2002-08-23 09:45:11 51°19.843 2°31.045 20.312389 4.644105 33.643589  
2002-08-23 09:46:11 51°19.844 2°31.028 20.073653 4.645371 33.653303  
2002-08-23 09:47:13 51°19.843 2°31.009 20.332006 4.646321 33.670564  
2002-08-23 09:48:12 51°19.839 2°30.991 20.299094 4.646005 33.665746  
2002-08-23 09:49:12 51°19.833 2°30.972 20.262497 4.646427 33.672544  
2002-08-23 09:50:11 51°19.826 2°30.954 20.199377 4.646638 33.674258  
2002-08-23 09:51:12 51°19.821 2°30.953 20.193566 4.646743 33.676239  
2002-08-23 09:52:12 51°19.82 2°30.979 20.051134 4.646744 33.6813  
2002-08-23 09:53:12 51°19.817 2°31.029 20.227455 4.646955 33.685826  
2002-08-23 09:54:11 51°19.805 2°31.089 20.1574 4.646216 33.67308  
2002-08-23 09:55:11 51°19.78 2°31.154 20.383297 4.646744 33.682425  
2002-08-23 09:56:13 51°19.739 2°31.196 20.415366 4.646005 33.676989  
2002-08-23 09:57:12 51°19.697 2°31.214 20.254797 4.645477 33.672705  
2002-08-23 09:58:13 51°19.654 2°31.222 20.223301 4.644528 33.663307  
2002-08-23 09:59:11 51°19.61 2°31.211 20.191145 4.644317 33.658783  
2002-08-23 10:00:12 51°19.564 2°31.18 20.126304 4.643894 33.653109  
2002-08-23 10:01:11 51°19.524 2°31.14 20.187674 4.644106 33.65707  
2002-08-23 10:02:11 51°19.489 2°31.092 20.187432 4.644317 33.66328  
2002-08-23 10:03:11 51°19.461 2°31.041 20.019142 4.644211 33.662985  
2002-08-23 10:04:12 51°19.437 2°30.993 20.18493 4.644739 33.668394  
2002-08-23 10:05:12 51°19.417 2°30.943 20.117336 4.644317 33.664966  
2002-08-23 10:06:11 51°19.398 2°30.881 20.075957 4.644422 33.670322  
2002-08-23 10:07:11 51°19.384 2°30.816 20.272455 4.644528 33.672866  
2002-08-23 10:08:11 51°19.372 2°30.758 20.304654 4.644422 33.674259  
2002-08-23 10:09:11 51°19.362 2°30.708 20.171933 4.645055 33.678276  
2002-08-23 10:10:12 51°19.355 2°30.663 20.103357 4.644739 33.678518  
2002-08-23 10:11:13 51°19.349 2°30.621 20.208617 4.645055 33.680527  
2002-08-23 10:12:11 51°19.349 2°30.59 20.207406 4.645161 33.678008  
2002-08-23 10:13:12 51°19.351 2°30.572 20.1727 4.645478 33.682267  
2002-08-23 10:14:11 51°19.35 2°30.568 20.469652 4.645583 33.679749  
2002-08-23 10:15:11 51°19.341 2°30.577 20.040175 4.6459 33.68851  
2002-08-23 10:16:11 51°19.326 2°30.602 20.144882 4.645583 33.683687  
2002-08-23 10:17:13 51°19.318 2°30.634 20.282289 4.646638 33.686068  
2002-08-23 10:18:11 51°19.318 2°30.667 20.190176 4.646849 33.682719  
2002-08-23 10:19:12 51°19.317 2°30.708 20.220114 4.646849 33.682157  
2002-08-23 10:20:11 51°19.316 2°30.75 20.280072 4.646744 33.6858  
2002-08-23 10:21:12 51°19.327 2°30.782 20.215314 4.646322 33.683497  
2002-08-23 10:22:12 51°19.344 2°30.804 20.392835 4.646321 33.680685  
2002-08-23 10:23:12 51°19.366 2°30.821 20.425945 4.646638 33.673696  
2002-08-23 10:24:13 51°19.388 2°30.838 20.42691 4.64706 33.677122  
2002-08-23 10:25:12 51°19.402 2°30.867 20.091235 4.647165 33.679666  
2002-08-23 10:26:12 51°19.404 2°30.909 20.223825 4.646427 33.67648  
2002-08-23 10:27:11 51°19.39 2°30.953 20.293412 4.646532 33.677337  
2002-08-23 10:28:13 51°19.362 2°30.998 20.223301 4.646532 33.676212  
2002-08-23 10:29:12 51°19.323 2°31.032 20.387402 4.646954 33.679077  
2002-08-23 10:30:11 51°19.291 2°31.07 20.216322 4.646849 33.682157  
2002-08-23 10:31:11 51°19.277 2°31.112 20.053317 4.646533 33.682961  
2002-08-23 10:32:11 51°19.281 2°31.143 20.083394 4.646955 33.686389  
2002-08-23 10:33:11 51°19.293 2°31.162 20.25012 4.646322 33.68181  
2002-08-23 10:34:12 51°19.31 2°31.177 20.287851 4.646638 33.679881  
2002-08-23 10:35:11 51°19.326 2°31.194 20.218823 4.647482 33.685048  
2002-08-23 10:36:12 51°19.342 2°31.214 20.44738 4.646638 33.681006  
2002-08-23 10:37:12 51°19.358 2°31.236 20.21729 4.646849 33.683282  
2002-08-23 10:38:12 51°19.374 2°31.256 20.218057 4.647166 33.684165  
2002-08-23 10:39:11 51°19.392 2°31.273 20.129172 4.647482 33.68561  
2002-08-23 10:40:13 51°19.413 2°31.29 20.130707 4.647799 33.681994  
2002-08-23 10:41:11 51°19.433 2°31.305 20.231408 4.648537 33.686304  
2002-08-23 10:42:12 51°19.456 2°31.317 20.14565 4.647693 33.678327  
2002-08-23 10:43:12 51°19.48 2°31.325 20.122628 4.648748 33.676213  
2002-08-23 10:44:12 51°19.504 2°31.332 20.394203 4.650858 33.683224  
2002-08-23 10:45:11 51°19.53 2°31.335 20.435276 4.650858 33.67873  
2002-08-23 10:46:11 51°19.556 2°31.337 20.319036 4.650541 33.667179  
2002-08-23 10:47:13 51°19.584 2°31.339 20.18836 4.651807 33.667345  
2002-08-23 10:48:12 51°19.611 2°31.338 20.221687 4.651596 33.66844  
2002-08-23 10:49:12 51°19.64 2°31.337 20.291115 4.651807 33.665662  
2002-08-23 10:50:11 51°19.668 2°31.335 20.424859 4.652124 33.665985  
2002-08-23 10:51:11 51°19.696 2°31.335 20.334986 4.651913 33.663713  
2002-08-23 10:52:11 51°19.722 2°31.35 20.347389 4.653073 33.664148  
2002-08-23 10:53:13 51°19.746 2°31.38 20.661089 4.657716 33.695609  
2002-08-23 10:54:13 51°19.768 2°31.413 20.369733 4.660143 33.73326  
2002-08-23 10:55:11 51°19.789 2°31.446 20.184163 4.660355 33.755787  
2002-08-23 10:56:12 51°19.808 2°31.477 20.330435 4.660671 33.762298  
2002-08-23 10:57:11 51°19.823 2°31.506 20.105256 4.662148 33.766967  
2002-08-23 10:58:11 51°19.837 2°31.535 20.265723 4.662254 33.766697  
2002-08-23 10:59:11 51°19.852 2°31.569 20.290269 4.66141 33.765477  
2002-08-23 11:00:11 51°19.864 2°31.608 20.31674 4.661515 33.771403  
2002-08-23 11:01:11 51°19.878 2°31.656 20.108812 4.659933 33.767005  
2002-08-23 11:02:12 51°19.891 2°31.715 20.436804 4.659616 33.769507  
2002-08-23 11:03:11 51°19.895 2°31.781 20.235844 4.6574 33.717753  
2002-08-23 11:04:13 51°19.889 2°31.854 20.31392 4.654867 33.678127  
2002-08-23 11:05:10 51°19.88 2°31.921 20.414964 4.652968 33.658808  
2002-08-23 11:06:12 51°19.864 2°31.99 20.446857 4.65149 33.640113  
2002-08-23 11:07:12 51°19.837 2°32.047 20.367922 4.646742 33.609479  
2002-08-23 11:08:12 51°19.797 2°32.085 20.393519 4.650963 33.649846  
2002-08-23 11:09:11 51°19.752 2°32.098 20.354073 4.650224 33.650026  
2002-08-23 11:10:11 51°19.706 2°32.096 20.513613 4.651174 33.657164  
2002-08-23 11:11:13 51°19.659 2°32.091 20.644491 4.650963 33.670602  
2002-08-23 11:12:12 51°19.614 2°32.087 20.301471 4.648642 33.67648  
2002-08-23 11:13:18 51°19.564 2°32.079 20.333295 4.649065 33.684402  
2002-08-23 11:14:27 51°19.513 2°32.064 20.16507 4.648854 33.687187  
2002-08-23 11:15:28 51°19.47 2°32.042 20.169269 4.649276 33.690051  
2002-08-23 11:16:27 51°19.431 2°32.013 20.300867 4.64917 33.686383  
2002-08-23 11:17:26 51°19.395 2°31.981 20.496337 4.649592 33.690934  
2002-08-23 11:18:27 51°19.359 2°31.946 20.261046 4.649065 33.69115  
2002-08-23 11:19:26 51°19.324 2°31.911 20.201394 4.64917 33.691444  
2002-08-23 11:20:26 51°19.29 2°31.875 20.230964 4.649381 33.688659  
2002-08-23 11:21:28 51°19.257 2°31.837 20.225197 4.649065 33.690025  
2002-08-23 11:22:27 51°19.225 2°31.799 20.320527 4.649065 33.695087  
2002-08-23 11:23:28 51°19.194 2°31.76 20.256248 4.648959 33.696481  
2002-08-23 11:24:26 51°19.165 2°31.722 20.195705 4.649065 33.692275  
2002-08-23 11:25:28 51°19.134 2°31.683 20.293694 4.649592 33.696558  
2002-08-23 11:26:26 51°19.106 2°31.645 20.357173 4.64917 33.695382  
2002-08-23 11:27:26 51°19.078 2°31.607 20.026787 4.649276 33.698489  
2002-08-23 11:28:28 51°19.05 2°31.567 20.432782 4.649381 33.694282  
2002-08-23 11:29:26 51°19.024 2°31.529 20.166281 4.650647 33.696688  
2002-08-23 11:30:26 51°18.998 2°31.49 20.172821 4.650753 33.701482  
2002-08-23 11:31:28 51°18.974 2°31.449 20.331563 4.650647 33.698375  
2002-08-23 11:32:28 51°18.956 2°31.406 20.329952 4.650542 33.700331  
2002-08-23 11:33:26 51°18.948 2°31.367 20.299698 4.650331 33.70143  
2002-08-23 11:34:27 51°18.95 2°31.336 20.204905 4.651069 33.701239  
2002-08-23 11:35:26 51°18.957 2°31.308 20.19518 4.650964 33.701507  
2002-08-23 11:36:26 51°18.965 2°31.286 20.163415 4.649909 33.696878  
2002-08-23 11:37:26 51°18.974 2°31.269 20.303888 4.650647 33.700625  
2002-08-23 11:38:28 51°18.985 2°31.255 20.185979 4.651175 33.698721  
2002-08-23 11:39:26 51°19.005 2°31.219 20.328139 4.652124 33.696308  
2002-08-23 11:40:26 51°19.045 2°31.163 20.19405 4.653918 33.700184  
2002-08-23 11:41:26 51°19.095 2°31.133 20.289946 4.652546 33.695799  
2002-08-23 11:42:28 51°19.148 2°31.132 20.540161 4.652968 33.695851  
2002-08-23 11:43:27 51°19.197 2°31.149 20.315129 4.654762 33.696357  
2002-08-23 11:44:26 51°19.248 2°31.178 20.578942 4.654762 33.695795  
2002-08-23 11:45:26 51°19.298 2°31.217 20.38048 4.655078 33.697801  
2002-08-23 11:46:28 51°19.348 2°31.268 20.39038 4.655922 33.701839  
2002-08-23 11:47:27 51°19.393 2°31.325 20.500355 4.656978 33.702532  
2002-08-23 11:48:28 51°19.439 2°31.388 20.71102 4.658455 33.70328  
2002-08-23 11:49:27 51°19.48 2°31.456 20.526105 4.659826 33.702612  
2002-08-23 11:50:26 51°19.515 2°31.532 20.361723 4.661303 33.708971  
2002-08-23 11:51:26 51°19.55 2°31.611 20.431656 4.66067 33.707769  
2002-08-23 11:52:26 51°19.58 2°31.682 20.272696 4.66278 33.707476  
2002-08-23 11:53:26 51°19.603 2°31.745 20.37553 4.665418 33.706974  
2002-08-23 11:54:26 51°19.626 2°31.801 20.576895 4.664785 33.695127  
2002-08-23 11:55:26 51°19.647 2°31.852 20.452245 4.667844 33.691339  
2002-08-23 11:56:28 51°19.668 2°31.899 20.527712 4.673436 33.684008  
2002-08-23 11:57:28 51°19.687 2°31.94 20.641844 4.677761 33.680999  
2002-08-23 11:58:33 51°19.706 2°31.983 20.857486 4.679344 33.682064  
2002-08-23 11:59:31 51°19.724 2°32.019 20.701406 4.677761 33.686017  
2002-08-23 12:00:33 51°19.742 2°32.057 20.300625 4.681348 33.679294  
2002-08-23 12:01:33 51°19.759 2°32.093 20.736534 4.67966 33.68406  
2002-08-23 12:02:33 51°19.776 2°32.128 20.616297 4.677761 33.686017  
2002-08-23 12:03:33 51°19.792 2°32.163 20.411544 4.676073 33.685776  
2002-08-23 12:04:31 51°19.808 2°32.198 20.618343 4.676073 33.682987  
2002-08-23 12:05:31 51°19.823 2°32.235 20.45924 4.677023 33.684517  
2002-08-23 12:06:31 51°19.838 2°32.271 20.620829 4.67755 33.684872  
2002-08-23 12:07:31 51°19.853 2°32.309 20.51277 4.677128 33.688715  
2002-08-23 12:08:31 51°19.868 2°32.346 20.533776 4.676706 33.693119  
2002-08-23 12:09:31 51°19.883 2°32.383 20.6663 4.674596 33.677756  
2002-08-23 12:10:33 51°19.898 2°32.422 20.54751 4.676812 33.700669  
2002-08-23 12:11:33 51°19.912 2°32.459 20.45317 4.676285 33.717076  
2002-08-23 12:12:33 51°19.926 2°32.496 20.365064 4.674386 33.722418  
2002-08-23 12:13:31 51°19.939 2°32.531 20.470416 4.671959 33.720143  
2002-08-23 12:14:31 51°19.955 2°32.566 20.618824 4.67006 33.722698  
2002-08-23 12:15:31 51°19.968 2°32.603 20.378508 4.668372 33.719681  
2002-08-23 12:16:33 51°19.982 2°32.642 20.507386 4.672065 33.713721  
2002-08-23 12:17:31 51°19.995 2°32.678 20.694073 4.672803 33.716336  
2002-08-23 12:18:33 51°20.009 2°32.718 20.656559 4.672065 33.717638  
2002-08-23 12:19:33 51°20.022 2°32.758 20.715787 4.671643 33.715904  
2002-08-23 12:20:31 51°20.036 2°32.796 20.449591 4.671326 33.718382  
2002-08-23 12:21:33 51°20.05 2°32.839 20.403256 4.667527 33.68766  
2002-08-23 12:22:33 51°20.064 2°32.88 20.29172 4.668371 33.683303  
2002-08-23 12:23:34 51°20.079 2°32.921 20.313477 4.668055 33.68969  
2002-08-23 12:24:34 51°20.094 2°32.96 20.258829 4.672381 33.693914  
2002-08-23 12:25:34 51°20.109 2°32.999 20.613609 4.678606 33.708452  
2002-08-23 12:26:34 51°20.123 2°33.041 20.67588 4.68272 33.703725  
2002-08-23 12:27:34 51°20.137 2°33.083 20.594632 4.684725 33.705402  
2002-08-23 12:28:35 51°20.152 2°33.146 20.636551 4.684408 33.704521  
2002-08-23 12:29:36 51°20.142 2°33.422 20.472385 4.684514 33.701472  
2002-08-23 12:30:36 51°20.06 2°33.78 20.386517 4.672909 33.709358  
2002-08-23 12:31:36 51°19.974 2°34.143 20.498025 4.662253 33.699838  
2002-08-23 12:32:36 51°19.874 2°34.496 20.65684 4.658032 33.651665  
2002-08-23 12:33:35 51°19.774 2°34.846 20.461773 4.65993 33.601131  
2002-08-23 12:34:36 51°19.669 2°35.217 20.493886 4.655182 33.588962  
2002-08-23 12:35:36 51°19.565 2°35.58 20.458959 4.65054 33.591035  
2002-08-23 12:36:36 51°19.464 2°35.946 20.208173 4.648007 33.570545  
2002-08-23 12:37:36 51°19.363 2°36.311 20.456828 4.648533 33.486876  
2002-08-23 12:38:36 51°19.263 2°36.678 20.654635 4.646634 33.462678  
2002-08-23 12:39:36 51°19.161 2°37.048 20.652109 4.642519 33.420627  
2002-08-23 12:40:36 51°19.054 2°37.407 20.393922 4.638825 33.385322  
2002-08-23 12:41:36 51°18.939 2°37.758 20.528395 4.633128 33.389159  
2002-08-23 12:42:36 51°18.828 2°38.113 20.468446 4.631335 33.378557  
2002-08-23 12:43:36 51°18.72 2°38.466 20.271044 4.631123 33.327104  
2002-08-23 12:44:36 51°18.62 2°38.821 20.677042 4.629749 33.205575  
2002-08-23 12:45:36 51°18.514 2°39.167 20.526868 4.609275 32.81094  
2002-08-23 12:46:36 51°18.409 2°39.514 20.557989 4.59345 32.759317  
2002-08-23 12:47:36 51°18.304 2°39.865 20.844572 4.592289 32.736101  
2002-08-23 12:48:36 51°18.195 2°40.219 20.684937 4.590495 32.716431  
2002-08-23 12:49:36 51°18.083 2°40.58 20.71747 4.5829 32.741676  
2002-08-23 12:50:36 51°17.967 2°40.938 20.587851 4.58174 32.776568  
2002-08-23 12:51:36 51°17.852 2°41.295 20.539639 4.588916 32.876235  
2002-08-23 12:52:36 51°17.74 2°41.652 20.695997 4.590815 32.894177  
2002-08-23 12:53:36 51°17.638 2°42.004 20.920421 4.590287 32.863939  
2002-08-23 12:54:36 51°17.529 2°42.345 20.946617 4.565383 32.462002  
2002-08-23 12:55:35 51°17.419 2°42.683 20.815618 4.55209 32.394921  
2002-08-23 12:56:36 51°17.301 2°43.033 20.868479 4.548714 32.373872  
2002-08-23 12:57:36 51°17.18 2°43.378 20.739217 4.551247 32.448759  
2002-08-23 12:58:36 51°17.06 2°43.724 20.944142 4.560426 32.520387  
2002-08-23 12:59:36 51°16.939 2°44.069 20.682973 4.563486 32.542665  
2002-08-23 13:00:36 51°16.821 2°44.413 20.653632 4.566229 32.568295  
2002-08-23 13:01:36 51°16.705 2°44.754 20.985535 4.567706 32.549648  
2002-08-23 13:02:36 51°16.586 2°45.089 20.901806 4.578569 32.422347  
2002-08-23 13:03:36 51°16.469 2°45.422 20.940628 4.555677 32.382677  
2002-08-23 13:04:36 51°16.358 2°45.76 20.893815 4.552723 32.365533  
2002-08-23 13:05:36 51°16.297 2°46.136 20.922857 4.55114 32.363527  
2002-08-23 13:06:36 51°16.236 2°46.521 21.019365 4.554199 32.36617  
2002-08-23 13:07:36 51°16.168 2°46.908 21.041339 4.563693 32.331311  
2002-08-23 13:08:36 51°16.098 2°47.296 21.195161 4.563587 32.316803  
2002-08-23 13:09:36 51°16.027 2°47.686 21.116659 4.562426 32.281362  
2002-08-23 13:10:36 51°15.955 2°48.077 21.296862 4.553776 32.272675  
2002-08-23 13:11:36 51°15.879 2°48.463 21.427413 4.568861 32.285111  
2002-08-23 13:12:36 51°15.804 2°48.849 21.242571 4.563586 32.280584  
2002-08-23 13:13:36 51°15.729 2°49.227 21.036155 4.58553 32.356076  
2002-08-23 13:14:36 51°15.653 2°49.602 20.933001 4.571501 32.452357  
2002-08-23 13:15:36 51°15.581 2°49.985 21.039983 4.556203 32.338788  
2002-08-23 13:16:36 51°15.511 2°50.37 21.208011 4.564959 32.349768  
2002-08-23 13:17:36 51°15.45 2°50.758 21.325223 4.568439 32.309549  
2002-08-23 13:18:36 51°15.393 2°51.148 21.261891 4.555568 32.209818  
2002-08-23 13:19:36 51°15.333 2°51.536 21.26686 4.535205 32.042589  
2002-08-23 13:20:36 51°15.27 2°51.901 21.24607 4.524338 31.925659  
2002-08-23 13:21:36 51°15.207 2°52.169 21.494242 4.515476 31.838714  
2002-08-23 13:22:36 51°15.145 2°52.421 21.149949 4.507351 31.744862  
2002-08-23 13:23:36 51°15.054 2°52.763 21.293763 2.466163 16.275186  
2002-08-23 13:24:36 51°14.961 2°53.107 21.390959 0.06539 0.344395  
2002-08-23 13:25:36 51°14.868 2°53.423 21.428563 0.057904 0.303898  
2002-08-23 13:26:36 51°14.771 2°53.736 21.463491 0.056137 0.294286  
2002-08-23 13:27:36 51°14.673 2°54.051 21.527079 0.053537 0.28022  
2002-08-23 13:28:36 51°14.572 2°54.366 21.550282 0.051354 0.268418  
2002-08-23 13:29:36 51°14.472 2°54.68 21.637995 0.049379 0.257742  
2002-08-23 13:30:36 51°14.369 2°54.993 21.683569 0.047404 0.247101  
2002-08-23 13:31:36 51°14.264 2°55.248 21.728799 0.04626 0.240899  
2002-08-23 13:32:36 51°14.181 2°55.364 21.741158 0.045117 0.234712  
2002-08-23 13:33:35 51°14.099 2°55.426 21.80012 0.044181 0.229636  
2002-08-23 13:34:36 51°14.003 2°55.497 21.862857 0.043245 0.224571